sensor_id;sensor_type;location;lat;lon;timestamp;pressure;altitude;pressure_sealevel;temperature;humidity
55191;BME280;41070;50.360;18.742;2024-03-25T17:16:06;97672.40;;;6.09;82.23
55191;BME280;41070;50.360;18.742;2024-03-25T17:18:34;97675.24;;;5.98;82.12
55191;BME280;41070;50.360;18.742;2024-03-25T17:21:08;97683.01;;;5.89;82.30
55191;BME280;41070;50.360;18.742;2024-03-25T17:23:36;97682.19;;;5.82;82.64
55191;BME280;41070;50.360;18.742;2024-03-25T17:26:04;97687.27;;;5.77;82.73
55191;BME280;41070;50.360;18.742;2024-03-25T17:28:32;97688.20;;;5.73;82.97
55191;BME280;41070;50.360;18.742;2024-03-25T17:31:03;97689.34;;;5.70;83.17
55191;BME280;41070;50.360;18.742;2024-03-25T17:33:31;97694.82;;;5.69;83.46
55191;BME280;41070;50.360;18.742;2024-03-25T17:35:58;97700.51;;;5.66;83.76
55191;BME280;41070;50.360;18.742;2024-03-25T17:38:26;97696.04;;;5.64;84.09
55191;BME280;41070;50.360;18.742;2024-03-25T17:40:54;97697.41;;;5.64;84.37
55191;BME280;41070;50.360;18.742;2024-03-25T17:43:23;97703.63;;;5.64;85.02
55191;BME280;41070;50.360;18.742;2024-03-25T17:45:51;97706.73;;;5.64;85.62
55191;BME280;41070;50.360;18.742;2024-03-25T17:48:20;97708.42;;;5.63;85.68
55191;BME280;41070;50.360;18.742;2024-03-25T17:50:57;97714.30;;;5.61;86.11
55191;BME280;41070;50.360;18.742;2024-03-25T17:53:28;97711.63;;;5.61;86.23
55191;BME280;41070;50.360;18.742;2024-03-25T17:55:57;97715.98;;;5.57;86.88
55191;BME280;41070;50.360;18.742;2024-03-25T17:58:26;97714.55;;;5.53;86.89
55191;BME280;41070;50.360;18.742;2024-03-25T18:00:53;97713.34;;;5.48;87.54
55191;BME280;41070;50.360;18.742;2024-03-25T18:03:21;97717.56;;;5.47;88.02
55191;BME280;41070;50.360;18.742;2024-03-25T18:05:48;97717.05;;;5.45;88.18
55191;BME280;41070;50.360;18.742;2024-03-25T18:08:16;97721.23;;;5.44;88.36
55191;BME280;41070;50.360;18.742;2024-03-25T18:10:45;97720.23;;;5.45;88.57
55191;BME280;41070;50.360;18.742;2024-03-25T18:13:13;97721.19;;;5.49;88.72
55191;BME280;41070;50.360;18.742;2024-03-25T18:15:52;97726.80;;;5.49;88.57
55191;BME280;41070;50.360;18.742;2024-03-25T18:18:20;97725.79;;;5.51;88.35
55191;BME280;41070;50.360;18.742;2024-03-25T18:20:49;97733.84;;;5.54;87.94
55191;BME280;41070;50.360;18.742;2024-03-25T18:23:16;97733.98;;;5.56;87.93
55191;BME280;41070;50.360;18.742;2024-03-25T18:25:44;97735.66;;;5.56;88.17
55191;BME280;41070;50.360;18.742;2024-03-25T18:28:12;97734.63;;;5.54;87.96
55191;BME280;41070;50.360;18.742;2024-03-25T18:30:40;97732.65;;;5.48;87.95
55191;BME280;41070;50.360;18.742;2024-03-25T18:33:07;97735.16;;;5.43;88.32
55191;BME280;41070;50.360;18.742;2024-03-25T18:35:38;97732.58;;;5.41;88.47
55191;BME280;41070;50.360;18.742;2024-03-25T18:38:23;97733.92;;;5.38;88.64
55191;BME280;41070;50.360;18.742;2024-03-25T18:40:50;97730.30;;;5.35;88.88
55191;BME280;41070;50.360;18.742;2024-03-25T18:43:19;97734.36;;;5.30;88.79
55191;BME280;41070;50.360;18.742;2024-03-25T18:45:47;97737.98;;;5.23;88.73
55191;BME280;41070;50.360;18.742;2024-03-25T18:48:15;97741.10;;;5.14;88.57
55191;BME280;41070;50.360;18.742;2024-03-25T18:50:42;97740.79;;;5.09;89.10
55191;BME280;41070;50.360;18.742;2024-03-25T18:53:10;97737.45;;;5.07;89.26
55191;BME280;41070;50.360;18.742;2024-03-25T18:55:40;97740.91;;;5.04;89.19
55191;BME280;41070;50.360;18.742;2024-03-25T18:58:07;97743.16;;;5.02;89.67
55191;BME280;41070;50.360;18.742;2024-03-25T19:00:36;97746.52;;;5.00;89.92
55191;BME280;41070;50.360;18.742;2024-03-25T19:03:12;97751.85;;;4.99;90.04
55191;BME280;41070;50.360;18.742;2024-03-25T19:05:41;97753.64;;;4.98;90.26
55191;BME280;41070;50.360;18.742;2024-03-25T19:08:12;97754.97;;;4.99;90.79
55191;BME280;41070;50.360;18.742;2024-03-25T19:10:40;97761.13;;;5.04;91.00
55191;BME280;41070;50.360;18.742;2024-03-25T19:13:08;97766.51;;;5.10;91.37
55191;BME280;41070;50.360;18.742;2024-03-25T19:15:36;97768.33;;;5.13;90.95
55191;BME280;41070;50.360;18.742;2024-03-25T19:18:05;97769.92;;;5.11;90.77
55191;BME280;41070;50.360;18.742;2024-03-25T19:20:42;97771.48;;;5.08;90.80
55191;BME280;41070;50.360;18.742;2024-03-25T19:23:10;97774.23;;;5.04;90.95
55191;BME280;41070;50.360;18.742;2024-03-25T19:25:40;97777.50;;;5.04;91.31
55191;BME280;41070;50.360;18.742;2024-03-25T19:28:08;97774.71;;;5.05;91.24
55191;BME280;41070;50.360;18.742;2024-03-25T19:30:38;97775.63;;;5.05;91.27
55191;BME280;41070;50.360;18.742;2024-03-25T19:33:10;97773.67;;;5.03;91.41
55191;BME280;41070;50.360;18.742;2024-03-25T19:35:39;97771.61;;;5.05;91.42
55191;BME280;41070;50.360;18.742;2024-03-25T19:38:07;97771.90;;;5.04;91.29
55191;BME280;41070;50.360;18.742;2024-03-25T19:40:37;97776.46;;;4.99;91.11
55191;BME280;41070;50.360;18.742;2024-03-25T19:43:05;97779.45;;;4.96;91.44
55191;BME280;41070;50.360;18.742;2024-03-25T19:45:32;97777.64;;;4.91;91.25
55191;BME280;41070;50.360;18.742;2024-03-25T19:48:04;97776.55;;;4.86;91.46
55191;BME280;41070;50.360;18.742;2024-03-25T19:50:32;97777.62;;;4.86;91.86
55191;BME280;41070;50.360;18.742;2024-03-25T19:53:00;97777.94;;;4.85;91.43
55191;BME280;41070;50.360;18.742;2024-03-25T19:55:27;97779.50;;;4.76;91.31
55191;BME280;41070;50.360;18.742;2024-03-25T19:57:58;97777.59;;;4.73;91.63
55191;BME280;41070;50.360;18.742;2024-03-25T20:00:36;97778.89;;;4.73;91.74
55191;BME280;41070;50.360;18.742;2024-03-25T20:03:06;97775.25;;;4.59;90.84
55191;BME280;41070;50.360;18.742;2024-03-25T20:05:36;97774.73;;;4.43;90.81
55191;BME280;41070;50.360;18.742;2024-03-25T20:08:03;97772.96;;;4.40;91.64
55191;BME280;41070;50.360;18.742;2024-03-25T20:10:32;97777.05;;;4.42;91.81
55191;BME280;41070;50.360;18.742;2024-03-25T20:13:00;97775.95;;;4.45;92.36
55191;BME280;41070;50.360;18.742;2024-03-25T20:15:28;97778.16;;;4.45;92.26
55191;BME280;41070;50.360;18.742;2024-03-25T20:17:56;97779.81;;;4.43;92.03
55191;BME280;41070;50.360;18.742;2024-03-25T20:20:24;97781.45;;;4.44;92.28
55191;BME280;41070;50.360;18.742;2024-03-25T20:22:56;97784.86;;;4.40;91.92
55191;BME280;41070;50.360;18.742;2024-03-25T20:25:23;97786.83;;;4.32;91.61
55191;BME280;41070;50.360;18.742;2024-03-25T20:27:51;97787.56;;;4.20;91.42
55191;BME280;41070;50.360;18.742;2024-03-25T20:30:19;97790.71;;;4.15;91.80
55191;BME280;41070;50.360;18.742;2024-03-25T20:32:50;97795.04;;;4.15;92.04
55191;BME280;41070;50.360;18.742;2024-03-25T20:35:18;97797.75;;;4.13;91.52
55191;BME280;41070;50.360;18.742;2024-03-25T20:37:45;97796.15;;;4.04;91.45
55191;BME280;41070;50.360;18.742;2024-03-25T20:40:13;97794.00;;;3.93;91.48
55191;BME280;41070;50.360;18.742;2024-03-25T20:42:41;97797.02;;;3.85;91.42
55191;BME280;41070;50.360;18.742;2024-03-25T20:45:09;97798.03;;;3.81;91.85
55191;BME280;41070;50.360;18.742;2024-03-25T20:47:38;97802.64;;;3.79;91.76
55191;BME280;41070;50.360;18.742;2024-03-25T20:50:25;97804.84;;;3.73;92.21
55191;BME280;41070;50.360;18.742;2024-03-25T20:52:53;97804.08;;;3.69;92.22
55191;BME280;41070;50.360;18.742;2024-03-25T20:55:20;97807.17;;;3.65;92.15
55191;BME280;41070;50.360;18.742;2024-03-25T20:57:48;97806.59;;;3.62;92.51
55191;BME280;41070;50.360;18.742;2024-03-25T21:00:15;97805.09;;;3.61;92.44
55191;BME280;41070;50.360;18.742;2024-03-25T21:02:43;97802.73;;;3.60;92.78
55191;BME280;41070;50.360;18.742;2024-03-25T21:05:11;97802.67;;;3.61;92.65
55191;BME280;41070;50.360;18.742;2024-03-25T21:07:38;97806.63;;;3.58;92.53
55191;BME280;41070;50.360;18.742;2024-03-25T21:10:07;97813.36;;;3.54;92.73
55191;BME280;41070;50.360;18.742;2024-03-25T21:12:35;97813.93;;;3.53;93.07
55191;BME280;41070;50.360;18.742;2024-03-25T21:15:07;97814.88;;;3.53;93.00
55191;BME280;41070;50.360;18.742;2024-03-25T21:17:35;97814.31;;;3.53;93.14
55191;BME280;41070;50.360;18.742;2024-03-25T21:20:04;97815.98;;;3.56;93.26
55191;BME280;41070;50.360;18.742;2024-03-25T21:22:35;97813.96;;;3.54;93.13
55191;BME280;41070;50.360;18.742;2024-03-25T21:25:03;97815.29;;;3.53;93.27
55191;BME280;41070;50.360;18.742;2024-03-25T21:27:32;97811.70;;;3.40;92.03
55191;BME280;41070;50.360;18.742;2024-03-25T21:30:00;97812.92;;;3.21;91.86
55191;BME280;41070;50.360;18.742;2024-03-25T21:32:31;97814.73;;;3.12;92.85
55191;BME280;41070;50.360;18.742;2024-03-25T21:34:58;97813.92;;;3.12;93.40
55191;BME280;41070;50.360;18.742;2024-03-25T21:37:26;97814.34;;;3.14;93.34
55191;BME280;41070;50.360;18.742;2024-03-25T21:39:53;97814.42;;;3.16;93.60
55191;BME280;41070;50.360;18.742;2024-03-25T21:42:21;97814.84;;;3.21;93.75
55191;BME280;41070;50.360;18.742;2024-03-25T21:44:50;97822.29;;;3.21;93.47
55191;BME280;41070;50.360;18.742;2024-03-25T21:47:37;97824.56;;;3.17;93.40
55191;BME280;41070;50.360;18.742;2024-03-25T21:50:07;97824.67;;;3.15;93.38
55191;BME280;41070;50.360;18.742;2024-03-25T21:52:45;97820.73;;;3.14;93.44
55191;BME280;41070;50.360;18.742;2024-03-25T21:55:12;97824.41;;;3.12;93.39
55191;BME280;41070;50.360;18.742;2024-03-25T21:57:40;97827.48;;;3.13;93.37
55191;BME280;41070;50.360;18.742;2024-03-25T22:01:53;97830.66;;;3.16;93.77
55191;BME280;41070;50.360;18.742;2024-03-25T22:04:21;97834.33;;;3.09;93.19
55191;BME280;41070;50.360;18.742;2024-03-25T22:06:50;97831.61;;;3.07;93.47
55191;BME280;41070;50.360;18.742;2024-03-25T22:09:17;97832.61;;;3.06;93.40
55191;BME280;41070;50.360;18.742;2024-03-25T22:11:45;97828.45;;;3.01;93.21
55191;BME280;41070;50.360;18.742;2024-03-25T22:14:12;97827.05;;;2.94;93.21
55191;BME280;41070;50.360;18.742;2024-03-25T22:16:41;97834.41;;;2.92;93.42
55191;BME280;41070;50.360;18.742;2024-03-25T22:19:08;97834.10;;;2.91;93.70
55191;BME280;41070;50.360;18.742;2024-03-25T22:21:36;97837.67;;;2.91;93.41
55191;BME280;41070;50.360;18.742;2024-03-25T22:24:04;97837.95;;;2.88;93.59
55191;BME280;41070;50.360;18.742;2024-03-25T22:26:32;97836.52;;;2.92;93.86
55191;BME280;41070;50.360;18.742;2024-03-25T22:29:21;97836.66;;;2.94;93.77
55191;BME280;41070;50.360;18.742;2024-03-25T22:31:49;97838.14;;;2.94;93.74
55191;BME280;41070;50.360;18.742;2024-03-25T22:34:16;97835.29;;;2.93;93.63
55191;BME280;41070;50.360;18.742;2024-03-25T22:36:44;97836.50;;;2.91;93.60
55191;BME280;41070;50.360;18.742;2024-03-25T22:39:12;97840.79;;;2.91;93.61
55191;BME280;41070;50.360;18.742;2024-03-25T22:41:39;97836.23;;;2.87;93.41
55191;BME280;41070;50.360;18.742;2024-03-25T22:44:07;97833.77;;;2.81;93.46
55191;BME280;41070;50.360;18.742;2024-03-25T22:46:35;97833.03;;;2.83;94.04
55191;BME280;41070;50.360;18.742;2024-03-25T22:49:02;97832.97;;;2.88;94.13
55191;BME280;41070;50.360;18.742;2024-03-25T22:51:30;97832.35;;;2.88;93.63
55191;BME280;41070;50.360;18.742;2024-03-25T22:54:10;97835.05;;;2.82;93.79
55191;BME280;41070;50.360;18.742;2024-03-25T22:56:37;97835.20;;;2.81;93.65
55191;BME280;41070;50.360;18.742;2024-03-25T22:59:05;97837.72;;;2.74;93.82
55191;BME280;41070;50.360;18.742;2024-03-25T23:01:33;97838.01;;;2.74;94.02
55191;BME280;41070;50.360;18.742;2024-03-25T23:04:00;97836.49;;;2.72;94.15
55191;BME280;41070;50.360;18.742;2024-03-25T23:06:28;97839.39;;;2.73;93.84
55191;BME280;41070;50.360;18.742;2024-03-25T23:08:59;97838.21;;;2.73;94.01
55191;BME280;41070;50.360;18.742;2024-03-25T23:11:26;97835.08;;;2.73;93.86
55191;BME280;41070;50.360;18.742;2024-03-25T23:14:08;97838.55;;;2.73;93.76
55191;BME280;41070;50.360;18.742;2024-03-25T23:16:36;97839.47;;;2.68;93.24
55191;BME280;41070;50.360;18.742;2024-03-25T23:19:04;97836.00;;;2.57;93.01
55191;BME280;41070;50.360;18.742;2024-03-25T23:21:32;97839.05;;;2.47;93.17
55191;BME280;41070;50.360;18.742;2024-03-25T23:23:59;97842.80;;;2.47;93.54
55191;BME280;41070;50.360;18.742;2024-03-25T23:26:27;97842.48;;;2.42;93.51
55191;BME280;41070;50.360;18.742;2024-03-25T23:28:55;97841.58;;;2.40;93.60
55191;BME280;41070;50.360;18.742;2024-03-25T23:31:23;97840.73;;;2.40;93.65
55191;BME280;41070;50.360;18.742;2024-03-25T23:33:50;97842.95;;;2.39;93.73
55191;BME280;41070;50.360;18.742;2024-03-25T23:36:18;97846.82;;;2.41;93.88
55191;BME280;41070;50.360;18.742;2024-03-25T23:38:46;97842.83;;;2.43;93.51
55191;BME280;41070;50.360;18.742;2024-03-25T23:41:31;97843.64;;;2.44;93.71
55191;BME280;41070;50.360;18.742;2024-03-25T23:43:59;97843.38;;;2.42;93.31
55191;BME280;41070;50.360;18.742;2024-03-25T23:46:27;97841.35;;;2.35;93.18
55191;BME280;41070;50.360;18.742;2024-03-25T23:49:00;97840.36;;;2.30;93.42
55191;BME280;41070;50.360;18.742;2024-03-25T23:51:28;97845.06;;;2.32;93.85
55191;BME280;41070;50.360;18.742;2024-03-25T23:53:56;97844.13;;;2.30;93.67
55191;BME280;41070;50.360;18.742;2024-03-25T23:56:24;97842.25;;;2.27;94.01
55191;BME280;41070;50.360;18.742;2024-03-25T23:59:18;97845.20;;;2.26;94.29
